Time;durP1;ratioP1;P1;durP2;ratioP2;P2;SDS_P1;SDS_P2;PMS_P1;PMS_P2;Temp;Humidity;BMP_temperature;BMP_pressure;BME280_temperature;BME280_humidity;BME280_pressure;Samples;Min_cycle;Max_cycle;Signal;HPM_P1;HPM_P2
2023/09/09 00:01:52;;;;;;;11.80;10.90;;;;;;;19.25;100.00;100262.66;4966951;28;20218;-77
2023/09/09 00:04:17;;;;;;;11.87;10.93;;;;;;;19.25;100.00;100260.03;4962265;28;20208;-77
2023/09/09 00:06:43;;;;;;;12.00;11.20;;;;;;;19.24;100.00;100261.78;4963221;28;20199;-78
2023/09/09 00:09:08;;;;;;;11.23;10.40;;;;;;;19.25;100.00;100262.66;4959003;28;20188;-79
2023/09/09 00:11:33;;;;;;;11.67;10.73;;;;;;;19.24;100.00;100255.72;4962634;28;20257;-77
2023/09/09 00:13:59;;;;;;;10.83;10.10;;;;;;;19.21;100.00;100253.22;4961065;28;20266;-78
2023/09/09 00:16:24;;;;;;;12.17;11.17;;;;;;;19.18;100.00;100252.44;4958651;28;20612;-77
2023/09/09 00:18:50;;;;;;;12.10;11.30;;;;;;;19.15;100.00;100259.59;4956683;28;20271;-78
2023/09/09 00:21:15;;;;;;;12.80;11.80;;;;;;;19.10;100.00;100262.44;4960373;28;20771;-78
2023/09/09 00:23:40;;;;;;;11.13;10.33;;;;;;;19.08;100.00;100266.91;4962149;28;20607;-77
2023/09/09 00:26:05;;;;;;;12.67;11.67;;;;;;;19.07;100.00;100269.56;4959374;28;20194;-77
2023/09/09 00:28:32;;;;;;;11.87;11.07;;;;;;;19.06;100.00;100266.09;4959939;28;20249;-78
2023/09/09 00:30:57;;;;;;;11.50;10.60;;;;;;;19.03;100.00;100264.50;4964901;28;20229;-78
2023/09/09 00:33:23;;;;;;;10.83;10.10;;;;;;;19.01;100.00;100271.56;4959801;28;20247;-80
2023/09/09 00:35:48;;;;;;;10.73;9.87;;;;;;;18.97;100.00;100261.28;4963098;28;21147;-78
2023/09/09 00:38:13;;;;;;;10.10;9.33;;;;;;;18.96;100.00;100267.44;4958902;28;20286;-77
2023/09/09 00:40:43;;;;;;;10.43;9.57;;;;;;;18.93;100.00;100267.53;4961410;28;20743;-79
2023/09/09 00:43:09;;;;;;;9.67;8.97;;;;;;;18.91;100.00;100267.59;4957172;28;20195;-78
2023/09/09 00:45:34;;;;;;;9.43;8.73;;;;;;;18.87;100.00;100266.88;4976398;28;20191;-78
2023/09/09 00:48:00;;;;;;;10.17;9.40;;;;;;;18.85;100.00;100263.47;4959364;28;20216;-78
2023/09/09 00:50:27;;;;;;;9.63;8.93;;;;;;;18.82;100.00;100266.25;4957634;28;20221;-77
2023/09/09 00:52:53;;;;;;;10.93;10.10;;;;;;;18.81;100.00;100266.31;4961704;28;20188;-78
2023/09/09 00:55:18;;;;;;;10.10;9.40;;;;;;;18.78;100.00;100275.16;4960838;28;20208;-78
2023/09/09 00:57:44;;;;;;;9.20;8.53;;;;;;;18.77;100.00;100267.34;4962663;28;20220;-77
2023/09/09 01:00:10;;;;;;;10.10;9.40;;;;;;;18.76;100.00;100263.03;4955971;28;20192;-78
2023/09/09 01:02:37;;;;;;;9.53;8.83;;;;;;;18.76;100.00;100257.78;4962504;28;20235;-78
2023/09/09 01:05:03;;;;;;;9.80;9.00;;;;;;;18.75;100.00;100267.44;4966866;28;20670;-77
2023/09/09 01:07:41;;;;;;;9.20;8.50;;;;;;;18.74;100.00;100258.72;4965689;28;20607;-77
2023/09/09 01:10:06;;;;;;;10.10;9.40;;;;;;;18.72;100.00;100260.56;4960492;28;20257;-77
2023/09/09 01:12:32;;;;;;;10.43;9.73;;;;;;;18.70;100.00;100266.75;4967221;28;20279;-77
2023/09/09 01:14:57;;;;;;;9.77;9.07;;;;;;;18.68;100.00;100261.59;4964653;28;20658;-78
2023/09/09 01:17:22;;;;;;;9.80;9.10;;;;;;;18.67;100.00;100270.38;4966121;28;20187;-77
2023/09/09 01:19:48;;;;;;;10.07;9.27;;;;;;;18.64;100.00;100265.25;4965248;28;20279;-77
2023/09/09 01:22:17;;;;;;;9.43;8.83;;;;;;;18.61;100.00;100273.25;4962814;28;20333;-77
2023/09/09 01:24:45;;;;;;;9.97;9.07;;;;;;;18.57;100.00;100267.31;4965604;28;20767;-79
2023/09/09 01:27:10;;;;;;;9.60;8.90;;;;;;;18.54;100.00;100267.44;4958850;28;20196;-77
2023/09/09 01:29:35;;;;;;;9.60;8.90;;;;;;;18.54;100.00;100263.97;4961827;28;20209;-78
2023/09/09 01:32:00;;;;;;;9.17;8.57;;;;;;;18.53;100.00;100265.72;4959410;28;20688;-77
2023/09/09 01:34:26;;;;;;;9.40;8.70;;;;;;;18.52;100.00;100261.44;4967192;28;20214;-79
2023/09/09 01:36:51;;;;;;;9.40;8.80;;;;;;;18.51;100.00;100267.59;4967588;28;20220;-78
2023/09/09 01:39:16;;;;;;;9.10;8.40;;;;;;;18.49;100.00;100269.41;4962724;28;20716;-78
2023/09/09 01:41:42;;;;;;;8.93;8.33;;;;;;;18.48;100.00;100269.47;4964861;28;20276;-77
2023/09/09 01:44:08;;;;;;;9.13;8.53;;;;;;;18.45;100.00;100274.84;4973922;28;20845;-77
2023/09/09 01:46:33;;;;;;;8.20;7.60;;;;;;;18.42;100.00;100271.44;4962861;28;20203;-77
2023/09/09 01:49:00;;;;;;;8.87;8.27;;;;;;;18.39;100.00;100270.69;4961464;28;20200;-78
2023/09/09 01:51:26;;;;;;;7.93;7.23;;;;;;;18.38;100.00;100271.59;4968498;28;20216;-77
2023/09/09 01:53:51;;;;;;;7.93;7.43;;;;;;;18.35;100.00;100269.97;4966912;28;20188;-77
2023/09/09 01:56:16;;;;;;;7.80;7.20;;;;;;;18.33;100.00;100271.81;4964929;28;20580;-77
2023/09/09 01:58:42;;;;;;;8.83;8.23;;;;;;;18.31;100.00;100270.16;4961369;28;20188;-77
2023/09/09 02:01:07;;;;;;;8.23;7.73;;;;;;;18.28;100.00;100274.63;4970075;28;20299;-77
2023/09/09 02:03:32;;;;;;;8.70;8.10;;;;;;;18.27;100.00;100277.31;4969581;28;20689;-77
2023/09/09 02:05:58;;;;;;;8.93;8.33;;;;;;;18.25;100.00;100273.91;4964574;28;20216;-77
2023/09/09 02:08:23;;;;;;;9.20;8.53;;;;;;;18.23;100.00;100265.25;4971747;28;20202;-77
2023/09/09 02:10:50;;;;;;;10.00;9.30;;;;;;;18.22;100.00;100272.28;4954475;28;20326;-77
2023/09/09 02:13:16;;;;;;;9.47;8.70;;;;;;;18.20;100.00;100271.47;4958427;28;20566;-77
2023/09/09 02:15:41;;;;;;;9.77;9.17;;;;;;;18.18;100.00;100273.31;4964550;28;20188;-78
2023/09/09 02:18:07;;;;;;;9.87;9.17;;;;;;;18.14;100.00;100269.09;4955982;28;20205;-78
2023/09/09 02:20:32;;;;;;;9.63;8.93;;;;;;;18.10;100.00;100270.13;4965383;28;20594;-77
2023/09/09 02:22:58;;;;;;;10.47;9.67;;;;;;;18.08;100.00;100269.34;4959079;28;20254;-77
2023/09/09 02:25:23;;;;;;;9.90;9.20;;;;;;;18.05;100.00;100272.09;4963722;28;20267;-77
2023/09/09 02:27:49;;;;;;;10.10;9.40;;;;;;;18.01;100.00;100270.50;4959898;28;20247;-78
2023/09/09 02:30:15;;;;;;;9.50;8.90;;;;;;;17.98;100.00;100268.88;4962600;28;20220;-78
2023/09/09 02:32:43;;;;;;;9.90;9.20;;;;;;;17.95;100.00;100264.56;4965620;28;20280;-77
2023/09/09 02:35:09;;;;;;;8.47;7.67;;;;;;;17.94;100.00;100268.09;4965774;28;20335;-77
2023/09/09 02:37:35;;;;;;;9.27;8.67;;;;;;;17.90;100.00;100269.16;4963916;28;20314;-77
2023/09/09 02:40:00;;;;;;;9.80;9.10;;;;;;;17.87;100.00;100274.50;4958777;28;20187;-77
2023/09/09 02:42:25;;;;;;;9.43;8.83;;;;;;;17.84;100.00;100264.16;4965144;28;20279;-77
2023/09/09 02:44:51;;;;;;;8.77;8.10;;;;;;;17.83;100.00;100270.28;4969289;28;20182;-77
2023/09/09 02:47:17;;;;;;;8.97;8.17;;;;;;;17.81;100.00;100273.00;4963915;28;20198;-78
2023/09/09 02:49:43;;;;;;;9.40;8.70;;;;;;;17.82;100.00;100271.22;4959730;28;20272;-78
2023/09/09 02:52:09;;;;;;;9.40;8.70;;;;;;;17.81;100.00;100264.25;4965778;28;20253;-79
2023/09/09 02:54:36;;;;;;;8.90;8.20;;;;;;;17.81;100.00;100262.53;4963172;28;20198;-78
2023/09/09 02:57:03;;;;;;;9.87;9.17;;;;;;;17.80;100.00;100270.41;4955624;28;20202;-77
2023/09/09 02:59:30;;;;;;;9.13;8.53;;;;;;;17.78;100.00;100265.25;4958278;28;20279;-78
2023/09/09 03:01:55;;;;;;;9.00;8.30;;;;;;;17.75;100.00;100260.13;4959729;28;20254;-78
2023/09/09 03:04:20;;;;;;;9.23;8.63;;;;;;;17.74;100.00;100265.44;4963072;28;20243;-77
2023/09/09 03:06:46;;;;;;;8.77;8.17;;;;;;;17.72;100.00;100269.88;4956315;28;20192;-77
2023/09/09 03:09:13;;;;;;;8.93;8.23;;;;;;;17.67;100.00;100263.03;4962402;28;20194;-78
2023/09/09 03:11:39;;;;;;;8.70;8.10;;;;;;;17.65;100.00;100270.09;4963168;28;20216;-78
2023/09/09 03:14:04;;;;;;;8.90;8.30;;;;;;;17.63;100.00;100264.06;4955855;28;20201;-78
2023/09/09 03:16:30;;;;;;;9.50;8.80;;;;;;;17.61;100.00;100262.44;4968159;28;20217;-77
2023/09/09 03:18:55;;;;;;;9.00;8.40;;;;;;;17.60;100.00;100264.22;4964448;28;20238;-78
2023/09/09 03:21:20;;;;;;;9.23;8.63;;;;;;;17.59;100.00;100269.47;4951797;28;20202;-78
2023/09/09 03:23:45;;;;;;;10.57;9.87;;;;;;;17.57;100.00;100269.56;4962598;28;20531;-79
2023/09/09 03:26:18;;;;;;;10.73;9.80;;;;;;;17.55;100.00;100263.53;4960255;28;20187;-78
2023/09/09 03:28:47;;;;;;;9.90;9.20;;;;;;;17.52;100.00;100263.63;4957384;28;20191;-80
2023/09/09 03:31:12;;;;;;;11.20;10.40;;;;;;;17.50;100.00;100266.31;4962739;28;20214;-78
2023/09/09 03:33:38;;;;;;;11.37;10.57;;;;;;;17.47;100.00;100269.06;4957402;28;20183;-78
2023/09/09 03:36:04;;;;;;;10.73;10.03;;;;;;;17.45;100.00;100270.03;4964756;28;20186;-79
2023/09/09 03:38:29;;;;;;;11.27;10.47;;;;;;;17.43;100.00;100269.22;4958618;28;20201;-78
2023/09/09 03:40:55;;;;;;;11.90;11.10;;;;;;;17.42;100.00;100270.97;4963803;28;20201;-78
2023/09/09 03:43:20;;;;;;;12.70;11.80;;;;;;;17.41;100.00;100271.03;4963058;28;20614;-78
2023/09/09 03:45:46;;;;;;;12.17;11.27;;;;;;;17.38;100.00;100285.09;4960426;28;20178;-78
2023/09/09 03:48:11;;;;;;;12.37;11.47;;;;;;;17.34;100.00;100276.50;4963571;28;20256;-78
2023/09/09 03:50:36;;;;;;;12.80;11.90;;;;;;;17.33;100.00;100274.78;4954768;28;20230;-78
2023/09/09 03:53:02;;;;;;;13.30;12.40;;;;;;;17.30;100.00;100274.94;4957057;28;21101;-78
2023/09/09 03:55:28;;;;;;;12.93;12.03;;;;;;;17.26;100.00;100283.78;4961418;28;20190;-78
2023/09/09 03:57:53;;;;;;;12.43;11.63;;;;;;;17.22;100.00;100282.19;4965396;28;20235;-78
2023/09/09 04:00:18;;;;;;;12.40;11.50;;;;;;;17.20;100.00;100282.25;4968616;28;20797;-77
2023/09/09 04:02:44;;;;;;;13.70;12.70;;;;;;;17.17;100.00;100281.50;4970418;28;20249;-79
2023/09/09 04:05:10;;;;;;;13.17;12.07;;;;;;;17.14;100.00;100282.47;4962996;28;20197;-78
2023/09/09 04:07:36;;;;;;;13.57;12.47;;;;;;;17.11;100.00;100285.19;4960471;28;20198;-77
2023/09/09 04:10:05;;;;;;;14.37;13.37;;;;;;;17.09;100.00;100287.03;4960386;28;20186;-79
2023/09/09 04:12:30;;;;;;;15.07;13.87;;;;;;;17.08;100.00;100285.31;4959916;28;20761;-78
2023/09/09 04:14:56;;;;;;;13.83;12.83;;;;;;;17.09;100.00;100283.56;4961226;28;20291;-77
2023/09/09 04:17:21;;;;;;;14.30;13.30;;;;;;;17.10;100.00;100285.25;4959418;28;20195;-77
2023/09/09 04:19:47;;;;;;;14.40;13.40;;;;;;;17.09;100.00;100284.41;4960824;28;20244;-79
2023/09/09 04:22:12;;;;;;;14.10;13.00;;;;;;;17.09;100.00;100280.94;4959016;28;20213;-78
2023/09/09 04:24:37;;;;;;;13.17;12.27;;;;;;;17.08;100.00;100287.06;4959371;28;20206;-78
2023/09/09 04:27:03;;;;;;;13.10;12.17;;;;;;;17.06;100.00;100293.22;4962445;28;20208;-80
2023/09/09 04:29:28;;;;;;;14.70;13.70;;;;;;;17.06;100.00;100297.59;4960038;28;20311;-77
2023/09/09 04:31:55;;;;;;;14.97;13.87;;;;;;;17.02;100.00;100291.59;4960375;28;20721;-79
2023/09/09 04:34:21;;;;;;;13.83;12.83;;;;;;;17.00;100.00;100293.44;4965875;28;20189;-77
2023/09/09 04:36:46;;;;;;;13.90;12.90;;;;;;;16.98;100.00;100291.78;4958105;28;20281;-78
2023/09/09 04:39:15;;;;;;;14.70;13.60;;;;;;;16.96;100.00;100294.44;4960259;28;20186;-77
2023/09/09 04:41:41;;;;;;;14.63;13.53;;;;;;;16.94;100.00;100295.38;4963240;28;20208;-77
2023/09/09 04:44:06;;;;;;;14.73;13.63;;;;;;;16.91;100.00;100302.44;4963058;28;20190;-77
2023/09/09 04:46:32;;;;;;;14.37;13.20;;;;;;;16.90;100.00;100297.25;4962823;28;20197;-78
2023/09/09 04:48:57;;;;;;;13.90;12.87;;;;;;;16.88;100.00;100296.44;4963112;28;20274;-77
2023/09/09 04:51:22;;;;;;;12.83;11.93;;;;;;;16.86;100.00;100300.88;4957968;28;20244;-79
2023/09/09 04:53:48;;;;;;;13.47;12.47;;;;;;;16.85;100.00;100307.03;4964697;28;20198;-79
2023/09/09 04:56:13;;;;;;;15.13;13.93;;;;;;;16.83;100.00;100312.28;4967941;28;20190;-78
2023/09/09 04:58:39;;;;;;;13.13;12.13;;;;;;;16.83;100.00;100304.44;4978101;28;20304;-78
2023/09/09 05:01:04;;;;;;;12.83;11.80;;;;;;;16.85;100.00;100309.63;4973180;28;21005;-78
2023/09/09 05:03:30;;;;;;;12.73;11.73;;;;;;;16.85;100.00;100305.25;4971676;28;20863;-78
2023/09/09 05:05:55;;;;;;;12.27;11.37;;;;;;;16.89;100.00;100316.44;4977109;28;20193;-78
2023/09/09 05:08:20;;;;;;;11.83;10.80;;;;;;;16.91;100.00;100310.28;4969592;28;20186;-78
2023/09/09 05:10:46;;;;;;;11.90;11.00;;;;;;;16.95;100.00;100310.16;4971717;28;20221;-77
2023/09/09 05:13:12;;;;;;;11.00;10.10;;;;;;;16.97;100.00;100314.47;4979448;28;20285;-78
2023/09/09 05:15:38;;;;;;;11.73;10.80;;;;;;;17.00;100.00;100308.25;4971472;28;20282;-77
2023/09/09 05:18:03;;;;;;;11.20;10.40;;;;;;;17.02;100.00;100314.28;4965830;28;20244;-78
2023/09/09 05:20:30;;;;;;;9.87;9.17;;;;;;;17.04;100.00;100320.31;4962616;28;20280;-77
2023/09/09 05:22:55;;;;;;;10.33;9.63;;;;;;;17.05;100.00;100322.88;4967721;28;20191;-77
2023/09/09 05:25:20;;;;;;;10.67;9.97;;;;;;;17.09;100.00;100318.41;4978808;28;20193;-78
2023/09/09 05:27:46;;;;;;;10.83;9.93;;;;;;;17.12;100.00;100317.44;4970108;28;20198;-78
2023/09/09 05:30:11;;;;;;;10.23;9.53;;;;;;;17.16;100.00;100324.28;4955670;28;20919;-77
2023/09/09 05:32:37;;;;;;;10.37;9.57;;;;;;;17.20;100.00;100321.47;4959204;28;20866;-79
2023/09/09 05:35:02;;;;;;;10.17;9.47;;;;;;;17.26;100.00;100324.75;4966695;28;20232;-78
2023/09/09 05:37:30;;;;;;;9.87;9.17;;;;;;;17.31;100.00;100328.06;4976039;28;20205;-79
2023/09/09 05:39:56;;;;;;;9.80;9.07;;;;;;;17.39;100.00;100335.66;4969839;28;20787;-79
2023/09/09 05:42:21;;;;;;;10.40;9.60;;;;;;;17.48;100.00;100336.16;4960331;28;20218;-77
2023/09/09 05:44:47;;;;;;;9.93;9.17;;;;;;;17.58;100.00;100331.44;4963657;28;20204;-77
2023/09/09 05:47:12;;;;;;;10.07;9.27;;;;;;;17.71;100.00;100339.66;4961993;28;20186;-77
2023/09/09 05:49:38;;;;;;;9.30;8.60;;;;;;;17.85;100.00;100336.53;4970752;28;20189;-77
2023/09/09 05:52:03;;;;;;;11.07;10.13;;;;;;;18.01;100.00;100333.34;4964441;28;20255;-76
2023/09/09 05:54:29;;;;;;;10.83;9.97;;;;;;;18.15;100.00;100343.31;4977622;28;20200;-77
2023/09/09 05:56:54;;;;;;;10.73;9.73;;;;;;;18.26;100.00;100338.47;4965535;28;20409;-78
2023/09/09 05:59:20;;;;;;;9.90;9.20;;;;;;;18.37;100.00;100344.13;4977140;28;20568;-77
2023/09/09 06:01:46;;;;;;;11.67;10.77;;;;;;;18.50;100.00;100341.00;4964509;28;20215;-78
2023/09/09 06:04:15;;;;;;;11.70;10.80;;;;;;;18.57;100.00;100335.44;4969980;28;20195;-77
2023/09/09 06:06:41;;;;;;;11.37;10.40;;;;;;;18.61;100.00;100340.56;4969600;28;20201;-78
2023/09/09 06:09:07;;;;;;;10.90;10.00;;;;;;;18.65;100.00;100339.53;4970120;28;20189;-78
2023/09/09 06:11:32;;;;;;;11.60;10.40;;;;;;;18.66;100.00;100339.44;4971579;28;20236;-79
2023/09/09 06:13:57;;;;;;;13.53;12.30;;;;;;;18.70;100.00;100343.66;4966816;28;20597;-77
2023/09/09 06:16:22;;;;;;;11.10;10.07;;;;;;;18.78;100.00;100350.31;4970313;28;20212;-79
2023/09/09 06:18:48;;;;;;;11.33;10.43;;;;;;;18.86;100.00;100353.50;4972538;28;20198;-78
2023/09/09 06:21:14;;;;;;;11.70;10.60;;;;;;;18.94;100.00;100355.78;4971632;28;20300;-79
2023/09/09 06:23:39;;;;;;;12.23;11.23;;;;;;;18.99;100.00;100359.06;4970310;28;20651;-77
2023/09/09 06:26:05;;;;;;;12.20;11.20;;;;;;;19.08;100.00;100357.81;4961338;28;20187;-78
2023/09/09 06:28:30;;;;;;;11.27;10.37;;;;;;;19.16;100.00;100366.22;4954708;28;20219;-77
2023/09/09 06:30:55;;;;;;;10.93;10.07;;;;;;;19.27;100.00;100373.66;4967362;28;20221;-77
2023/09/09 06:33:20;;;;;;;10.90;10.00;;;;;;;19.40;100.00;100369.56;4959267;28;20196;-77
2023/09/09 06:35:50;;;;;;;10.07;9.17;;;;;;;19.63;100.00;100371.13;4955800;28;20651;-77
2023/09/09 06:38:16;;;;;;;9.70;8.90;;;;;;;19.85;100.00;100371.94;4956942;28;20186;-78
2023/09/09 06:40:45;;;;;;;9.47;8.87;;;;;;;20.01;100.00;100365.06;4951365;28;20190;-78
2023/09/09 06:43:11;;;;;;;12.53;11.53;;;;;;;20.17;100.00;100373.06;4956387;28;20190;-77
2023/09/09 06:45:37;;;;;;;13.80;12.47;;;;;;;20.32;100.00;100376.75;4961336;28;20328;-76
2023/09/09 06:48:03;;;;;;;12.87;11.73;;;;;;;20.51;100.00;100375.81;4952077;28;20281;-78
2023/09/09 06:50:29;;;;;;;11.43;10.43;;;;;;;20.78;100.00;100378.88;4957937;28;20250;-78
2023/09/09 06:52:54;;;;;;;11.17;10.17;;;;;;;21.16;100.00;100375.22;4957070;28;20227;-80
2023/09/09 06:55:19;;;;;;;10.83;9.93;;;;;;;21.52;100.00;100374.22;4964400;28;20190;-79
2023/09/09 06:57:44;;;;;;;10.77;9.57;;;;;;;21.90;100.00;100375.75;4957022;28;20200;-78
2023/09/09 07:00:10;;;;;;;9.97;9.10;;;;;;;22.32;100.00;100376.03;4961646;28;20236;-76
2023/09/09 07:02:36;;;;;;;10.57;9.57;;;;;;;22.67;100.00;100371.44;4949633;28;20277;-78
2023/09/09 07:05:03;;;;;;;10.13;9.10;;;;;;;23.01;100.00;100384.41;4964411;28;20277;-79
2023/09/09 07:07:28;;;;;;;8.90;8.20;;;;;;;23.24;100.00;100385.69;4962618;28;20198;-78
2023/09/09 07:09:53;;;;;;;8.90;8.17;;;;;;;23.53;100.00;100385.69;4969324;28;20236;-78
2023/09/09 07:12:19;;;;;;;8.40;7.70;;;;;;;23.82;100.00;100385.66;4964161;28;20732;-78
2023/09/09 07:14:44;;;;;;;9.47;8.77;;;;;;;24.12;100.00;100381.19;4971106;28;20226;-84
2023/09/09 07:17:10;;;;;;;9.67;8.87;;;;;;;24.37;100.00;100385.72;4966137;28;20213;-78
2023/09/09 07:19:35;;;;;;;9.07;8.37;;;;;;;24.50;100.00;100377.84;4962458;28;20198;-78
2023/09/09 07:22:00;;;;;;;8.07;7.50;;;;;;;24.69;100.00;100385.38;4961287;28;20206;-80
2023/09/09 07:24:26;;;;;;;9.65;8.75;;;;;;;24.87;100.00;100378.06;4957311;28;20190;-79
2023/09/09 07:26:51;;;;;;;8.70;8.00;;;;;;;24.98;100.00;100384.41;4963383;28;20189;-77
2023/09/09 07:29:16;;;;;;;9.07;8.27;;;;;;;25.14;100.00;100386.84;4963414;28;20189;-79
2023/09/09 07:31:42;;;;;;;9.20;8.43;;;;;;;25.29;100.00;100392.91;4961267;28;20297;-79
2023/09/09 07:34:08;;;;;;;9.18;8.38;;;;;;;25.34;100.00;100386.31;4958377;28;20248;-79
2023/09/09 07:36:34;;;;;;;8.20;7.43;;;;;;;25.47;100.00;100382.84;4966407;28;20208;-78
2023/09/09 07:38:59;;;;;;;7.63;7.13;;;;;;;25.54;100.00;100392.91;4970146;28;20193;-77
2023/09/09 07:41:24;;;;;;;8.63;7.93;;;;;;;25.67;99.60;100392.88;4957132;28;20226;-79
2023/09/09 07:43:50;;;;;;;7.95;7.28;;;;;;;25.62;100.00;100384.41;4964539;28;20225;-79
2023/09/09 07:46:15;;;;;;;8.45;7.60;;;;;;;25.66;100.00;100390.31;4963473;28;20733;-78
2023/09/09 07:48:41;;;;;;;8.25;7.65;;;;;;;25.70;100.00;100389.16;4961621;28;20194;-79
2023/09/09 07:51:07;;;;;;;8.70;8.00;;;;;;;25.62;100.00;100392.34;4951220;28;20254;-78
2023/09/09 07:53:33;;;;;;;8.95;8.25;;;;;;;25.78;100.00;100389.47;4962378;28;20251;-76
2023/09/09 07:55:58;;;;;;;11.15;10.20;;;;;;;25.58;100.00;100387.38;4964968;28;20961;-79
2023/09/09 07:58:23;;;;;;;9.75;8.63;;;;;;;25.64;100.00;100390.44;4967967;28;20190;-79
2023/09/09 08:00:58;;;;;;;9.32;8.30;;;;;;;25.72;100.00;100381.94;4973527;28;20201;-77
2023/09/09 08:03:23;;;;;;;9.83;9.03;;;;;;;25.69;99.90;100387.47;4961258;28;20193;-77
2023/09/09 08:05:53;;;;;;;9.40;8.60;;;;;;;25.70;100.00;100378.56;4970623;28;20660;-77
2023/09/09 08:08:18;;;;;;;10.07;8.87;;;;;;;25.49;100.00;100394.19;4966359;28;20997;-77
2023/09/09 08:10:44;;;;;;;9.93;9.07;;;;;;;25.33;100.00;100392.56;4959848;28;20214;-78
2023/09/09 08:13:09;;;;;;;9.23;8.53;;;;;;;25.25;100.00;100403.69;4967814;28;20194;-77
2023/09/09 08:15:34;;;;;;;9.33;8.63;;;;;;;25.21;100.00;100404.00;4969736;28;20200;-76
2023/09/09 08:18:00;;;;;;;8.93;8.17;;;;;;;25.13;100.00;100406.31;4959308;28;20186;-80
2023/09/09 08:20:25;;;;;;;11.07;10.17;;;;;;;25.09;100.00;100411.84;4972790;28;20242;-77
2023/09/09 08:22:50;;;;;;;10.33;9.57;;;;;;;25.11;100.00;100401.97;4955689;28;20650;-76
2023/09/09 08:25:16;;;;;;;9.37;8.60;;;;;;;25.02;100.00;100413.22;4972294;28;20186;-78
2023/09/09 08:27:41;;;;;;;10.27;9.47;;;;;;;24.95;100.00;100411.94;4958012;28;20217;-76
2023/09/09 08:30:07;;;;;;;11.77;10.77;;;;;;;24.84;100.00;100401.22;4951493;28;20214;-75
2023/09/09 08:32:33;;;;;;;10.47;9.67;;;;;;;24.79;100.00;100410.34;4955066;28;20220;-79
2023/09/09 08:34:59;;;;;;;10.50;9.60;;;;;;;24.87;100.00;100407.16;4971214;28;20303;-75
2023/09/09 08:37:24;;;;;;;10.47;9.53;;;;;;;24.98;100.00;100397.66;4954634;28;20288;-77
2023/09/09 08:39:52;;;;;;;10.90;10.00;;;;;;;24.88;100.00;100408.00;4950814;28;20198;-76
2023/09/09 08:42:38;;;;;;;10.77;9.97;;;;;;;25.02;100.00;100401.78;4955291;28;20205;-78
2023/09/09 08:45:26;;;;;;;11.70;10.80;;;;;;;25.00;100.00;100398.41;4955973;28;20194;-77
2023/09/09 08:47:54;;;;;;;11.50;10.60;;;;;;;25.05;100.00;100396.25;4955308;28;20834;-76
2023/09/09 08:50:22;;;;;;;10.47;9.47;;;;;;;24.99;100.00;100402.00;4956961;28;20892;-76
2023/09/09 08:52:52;;;;;;;9.97;9.17;;;;;;;25.02;100.00;100401.78;4955435;28;20221;-76
2023/09/09 08:55:18;;;;;;;11.90;10.90;;;;;;;24.90;100.00;100399.00;4954057;28;20229;-77
2023/09/09 08:57:44;;;;;;;13.63;12.40;;;;;;;24.33;100.00;100400.13;4957932;28;20720;-78
2023/09/09 09:00:11;;;;;;;11.33;10.33;;;;;;;24.68;100.00;100396.91;4958238;28;20925;-78
2023/09/09 09:02:37;;;;;;;11.57;10.67;;;;;;;24.78;100.00;100403.34;4954772;28;20257;-78
2023/09/09 09:05:04;;;;;;;11.33;10.33;;;;;;;24.89;100.00;100402.59;4959791;28;22138;-78
2023/09/09 09:07:32;;;;;;;12.70;11.60;;;;;;;24.76;100.00;100399.09;4955799;28;20191;-78
2023/09/09 09:09:57;;;;;;;10.17;9.30;;;;;;;24.92;100.00;100405.03;4956805;28;20874;-78
2023/09/09 09:12:25;;;;;;;11.23;10.40;;;;;;;24.99;100.00;100396.69;4965687;28;20223;-80
2023/09/09 09:14:50;;;;;;;11.17;10.17;;;;;;;25.19;100.00;100395.31;4960058;28;20194;-79
2023/09/09 09:17:16;;;;;;;9.83;9.07;;;;;;;25.31;100.00;100402.41;4957515;28;20733;-79
2023/09/09 09:19:42;;;;;;;10.90;10.07;;;;;;;25.41;100.00;100395.53;4960789;28;20194;-79
2023/09/09 09:22:08;;;;;;;10.47;9.73;;;;;;;25.53;100.00;100400.97;4965821;28;20706;-79
2023/09/09 09:24:42;;;;;;;10.00;9.23;;;;;;;25.63;100.00;100395.88;4970369;28;20197;-79
2023/09/09 09:27:11;;;;;;;10.60;9.80;;;;;;;25.70;100.00;100392.66;4962347;28;20702;-78
2023/09/09 09:29:53;;;;;;;10.43;9.53;;;;;;;25.70;100.00;100391.81;4961631;28;20197;-78
2023/09/09 09:32:18;;;;;;;10.10;9.27;;;;;;;25.74;100.00;100385.34;4964250;28;21299;-78
2023/09/09 09:34:44;;;;;;;10.70;9.90;;;;;;;25.81;100.00;100394.53;4962386;28;20194;-79
2023/09/09 09:37:14;;;;;;;10.00;9.30;;;;;;;25.91;100.00;100388.59;4957845;28;20888;-79
2023/09/09 09:39:40;;;;;;;11.07;10.10;;;;;;;26.07;100.00;100383.88;4962152;28;20241;-79
2023/09/09 09:42:06;;;;;;;10.33;9.53;;;;;;;26.09;100.00;100389.03;4960005;28;20682;-78
2023/09/09 09:44:31;;;;;;;9.17;8.57;;;;;;;26.15;100.00;100388.66;4964688;28;20280;-79
2023/09/09 09:47:08;;;;;;;10.27;9.47;;;;;;;26.24;100.00;100387.97;4962930;28;20272;-78
2023/09/09 09:49:34;;;;;;;9.97;9.07;;;;;;;26.21;100.00;100382.03;4957321;28;20197;-79
2023/09/09 09:52:00;;;;;;;9.70;8.93;;;;;;;26.27;100.00;100384.22;4968667;28;20304;-77
2023/09/09 09:54:25;;;;;;;9.67;8.97;;;;;;;26.37;100.00;100374.66;4965474;28;20280;-81
2023/09/09 09:56:52;;;;;;;10.03;9.20;;;;;;;26.45;100.00;100382.03;4969221;28;20187;-79
2023/09/09 09:59:19;;;;;;;10.33;9.53;;;;;;;26.53;100.00;100369.03;4964635;28;20201;-79
2023/09/09 10:01:47;;;;;;;10.67;9.70;;;;;;;26.57;100.00;100374.94;4961645;28;20220;-80
2023/09/09 10:04:17;;;;;;;10.67;9.67;;;;;;;26.31;100.00;100380.38;4966641;28;20216;-78
2023/09/09 10:06:45;;;;;;;11.50;10.50;;;;;;;26.08;100.00;100371.44;4963325;28;20185;-81
2023/09/09 10:09:18;;;;;;;12.23;11.13;;;;;;;25.90;100.00;100385.06;4960829;28;20742;-79
2023/09/09 10:11:53;;;;;;;11.10;10.30;;;;;;;25.62;100.00;100373.81;4962191;28;20222;-79
2023/09/09 10:14:24;;;;;;;10.23;9.53;;;;;;;25.68;100.00;100370.72;4965381;28;20201;-79
2023/09/09 10:16:52;;;;;;;11.10;10.20;;;;;;;25.47;100.00;100369.59;4963655;28;20190;-78
2023/09/09 10:19:18;;;;;;;10.20;9.40;;;;;;;25.67;100.00;100374.34;4963069;28;20293;-79
2023/09/09 10:21:46;;;;;;;10.73;9.93;;;;;;;25.86;100.00;100373.84;4963201;28;20213;-79
2023/09/09 10:24:13;;;;;;;9.83;9.03;;;;;;;26.05;99.32;100377.81;4959576;28;20217;-77
2023/09/09 10:26:39;;;;;;;11.47;10.40;;;;;;;26.02;100.00;100370.09;4959379;28;20205;-78
2023/09/09 10:29:05;;;;;;;10.93;10.00;;;;;;;25.90;100.00;100368.34;4960266;28;20246;-77
2023/09/09 10:31:32;;;;;;;11.97;10.87;;;;;;;25.78;100.00;100367.41;4959728;28;20613;-77
2023/09/09 10:34:01;;;;;;;10.77;9.83;;;;;;;25.91;100.00;100364.72;4964552;28;20198;-78
2023/09/09 10:36:27;;;;;;;10.47;9.67;;;;;;;25.99;100.00;100363.22;4963195;28;20650;-78
2023/09/09 10:38:55;;;;;;;10.77;9.87;;;;;;;26.07;100.00;100356.50;4955616;28;20611;-79
2023/09/09 10:41:21;;;;;;;10.90;9.90;;;;;;;26.01;99.74;100363.09;4957866;28;20206;-77
2023/09/09 10:43:46;;;;;;;10.63;9.83;;;;;;;26.22;100.00;100360.69;4957132;28;20204;-81
2023/09/09 10:46:12;;;;;;;10.80;9.90;;;;;;;26.01;99.02;100360.44;4961628;28;20750;-77
2023/09/09 10:48:38;;;;;;;10.40;9.70;;;;;;;26.28;98.77;100356.75;4962256;28;20202;-77
2023/09/09 10:51:05;;;;;;;10.67;9.77;;;;;;;26.37;97.77;100352.56;4959862;28;20566;-78
2023/09/09 10:53:31;;;;;;;10.60;9.70;;;;;;;26.50;97.10;100349.84;4959297;28;20194;-77
2023/09/09 10:56:23;;;;;;;10.60;9.77;;;;;;;26.47;96.53;100356.22;4962265;28;20206;-82
2023/09/09 10:58:51;;;;;;;9.40;8.70;;;;;;;26.24;96.75;100352.66;4961291;28;21019;-78
2023/09/09 11:01:23;;;;;;;9.60;8.83;;;;;;;26.37;96.78;100344.59;4961044;28;20244;-80
2023/09/09 11:03:51;;;;;;;10.57;9.73;;;;;;;26.53;95.71;100349.63;4963932;28;20202;-81
2023/09/09 11:06:24;;;;;;;9.27;8.47;;;;;;;26.55;95.33;100345.88;4956741;28;20181;-80